{
  "fields": [{"type":"int","id":"_id"},{"info":{"type_override":"text","notes":"Hora UTC de lectura de los datos (AAAA-MM-DD HH:mm:SS)(+1 para CET invierno, +2 para CET verano)","label":"date"},"type":"text","id":"TIMESTAMP"},{"info":{"type_override":"text","notes":"Record Number - identificador del registro","label":"int"},"type":"text","id":"RECORD"},{"info":{"type_override":"text","notes":"Velocidad media del viento en el periodo de 10 minutos leído","label":"float"},"type":"text","id":"VV_S_WVT"},{"info":{"type_override":"text","notes":"Dirección media del viento en el periodo de 10 minutos leído","label":"float"},"type":"text","id":"DV_D1_WVT"},{"info":{"type_override":"text","notes":"Velocidad máxima del viento en el periodo de 10 minutos leído","label":"float"},"type":"text","id":"VV10m3Seg_Max"},{"info":{"type_override":"text","notes":"Dirección de la racha máxima del viento en el periodo de 10 minutos leído","label":"text"},"type":"text","id":"DV10m3Seg_SMM"},{"info":{"type_override":"text","notes":"Presión atmosférica media en el periodo de 10 minutos leído","label":"text"},"type":"text","id":"PRE_Avg"},{"info":{"type_override":"text","notes":"Temperatura del aire media en el periodo de 10 minutos leído","label":"text"},"type":"text","id":"TEM_Avg"},{"info":{"type_override":"text","notes":"Humedad relativa del aire promedio en el periodo de 10 minutos leído","label":"text"},"type":"text","id":"HUM_Avg"},{"info":{"type_override":"text","notes":"Radiación solar media en el periodo de 10 minutos leído","label":"text"},"type":"text","id":"RAD_Avg"},{"info":{"type_override":"text","notes":"Precipitación acumulada en el periodo de 10 minutos leído","label":"text"},"type":"text","id":"PLU_Tot"}],
  "records": [
    [1051878,"2026-05-05 00:00:00","5971","0.9890000000000001","230.8","1.96","253.5","1011.7239999999999","16.06","73.84","NAN","0"],
    [1051879,"2026-05-05 00:10:00","5972","0.36700000000000005","239.5","1.633","244.9","1011.721","16.02","73.43","NAN","0"],
    [1051880,"2026-05-05 00:20:00","5973","0.002","0.457","0.196","0.449","1011.711","15.84","74.4","NAN","0"],
    [1051881,"2026-05-05 00:30:00","5974","0.46299999999999997","52.39","1.307","32.09","1011.605","15.5","75.36","NAN","0"],
    [1051882,"2026-05-05 00:40:00","5975","0.39399999999999996","358.6","0.784","57.11","1011.5989999999999","15.66","72.28","NAN","0"],
    [1051883,"2026-05-05 00:50:00","5976","0.544","351.8","1.3719999999999999","360.0","1011.602","15.89","70.02","NAN","0"],
    [1051884,"2026-05-05 01:00:00","5977","0.5489999999999999","12.96","1.3719999999999999","7.4670000000000005","1011.643","15.87","69.1","NAN","0"],
    [1051885,"2026-05-05 01:10:00","5978","0.37200000000000005","352.7","1.339","308.5","1011.543","15.78","69.35","NAN","0"],
    [1051886,"2026-05-05 01:20:00","5979","0.39","301.5","1.568","303.0","1011.457","15.87","69.59","NAN","0"],
    [1051887,"2026-05-05 01:30:00","5980","0.591","247.8","1.176","266.6","1011.462","15.85","69.54","NAN","0"],
    [1051888,"2026-05-05 01:40:00","5981","0.66","283.2","1.601","299.7","1011.4739999999999","16.14","67.0","NAN","0"],
    [1051889,"2026-05-05 01:50:00","5982","1.104","316.6","2.875","310.7","1011.414","16.17","67.12","NAN","0"],
    [1051890,"2026-05-05 02:00:00","5983","1.349","265.9","3.7569999999999997","286.2","1011.477","16.21","66.66","NAN","0"],
    [1051891,"2026-05-05 02:10:00","5984","1.665","260.2","3.365","287.8","1011.475","16.25","66.1","NAN","0"],
    [1051892,"2026-05-05 02:20:00","5985","1.579","256.5","3.267","254.9","1011.4739999999999","16.18","66.67","NAN","0"],
    [1051893,"2026-05-05 02:30:00","5986","1.584","258.1","3.7569999999999997","261.5","1011.497","16.12","67.13","NAN","0"],
    [1051894,"2026-05-05 02:40:00","5987","1.5530000000000002","247.9","3.201","269.2","1011.53","16.05","67.72","NAN","0"],
    [1051895,"2026-05-05 02:50:00","5988","1.064","251.2","2.9730000000000003","251.2","1011.51","15.75","69.5","NAN","0"],
    [1051896,"2026-05-05 03:00:00","5989","1.265","248.8","3.299","260.0","1011.5089999999999","15.68","69.72","NAN","0"],
    [1051897,"2026-05-05 03:10:00","5990","1.5019999999999998","248.0","3.397","298.1","1011.4830000000001","15.66","69.55","NAN","0"],
    [1051898,"2026-05-05 03:20:00","5991","1.399","237.2","2.8089999999999997","244.3","1011.4789999999999","15.44","71.22","NAN","0"],
    [1051899,"2026-05-05 03:30:00","5992","1.8219999999999998","232.4","3.7239999999999998","246.4","1011.414","15.06","73.09","NAN","0"],
    [1051900,"2026-05-05 03:40:00","5993","1.7409999999999999","240.1","3.365","240.6","1011.3580000000001","15.02","73.13","NAN","0"],
    [1051901,"2026-05-05 03:50:00","5994","1.7269999999999999","237.6","3.822","232.8","1011.447","14.85","74.24","NAN","0"],
    [1051902,"2026-05-05 04:00:00","5995","1.57","245.5","3.299","236.5","1011.42","14.77","74.6","NAN","0"],
    [1051903,"2026-05-05 04:10:00","5996","1.262","242.1","2.7439999999999998","246.5","1011.367","14.72","75.05","NAN","0"],
    [1051904,"2026-05-05 04:20:00","5997","0.6890000000000001","241.7","1.764","250.8","1011.427","14.76","74.92","NAN","0"],
    [1051905,"2026-05-05 04:30:00","5998","0.483","292.2","1.895","306.3","1011.357","14.83","74.13","NAN","0"],
    [1051906,"2026-05-05 04:40:00","5999","0.374","297.9","1.4369999999999998","326.8","1011.3480000000001","14.87","73.23","NAN","0"],
    [1051907,"2026-05-05 04:50:00","6000","0.136","54.23","0.882","69.37","1011.3480000000001","14.69","74.18","NAN","0"],
    [1051908,"2026-05-05 05:00:00","6001","0.32","223.1","1.143","229.9","1011.34","14.6","75.08","NAN","0"],
    [1051909,"2026-05-05 05:10:00","6002","0.204","185.4","0.784","241.7","1011.238","14.68","75.48","NAN","0"],
    [1051910,"2026-05-05 05:20:00","6003","0.122","70.89","0.621","69.96","1011.153","14.7","76.37","NAN","0"],
    [1051911,"2026-05-05 05:30:00","6004","0.235","137.6","0.6859999999999999","180.3","1011.238","14.81","76.76","NAN","0"],
    [1051912,"2026-05-05 05:40:00","6005","1.044","234.9","2.189","255.9","1011.365","15.04","73.03","NAN","0"],
    [1051913,"2026-05-05 05:50:00","6006","1.228","235.3","2.45","251.7","1011.41","15.38","70.04","NAN","0"],
    [1051914,"2026-05-05 06:00:00","6007","0.8270000000000001","248.2","1.96","272.2","1011.378","15.56","68.59","NAN","0"],
    [1051915,"2026-05-05 06:10:00","6008","0.758","252.6","1.9269999999999998","249.8","1011.4760000000001","15.94","67.2","NAN","0"],
    [1051916,"2026-05-05 06:20:00","6009","0.9390000000000001","238.0","2.156","236.5","1011.4689999999999","16.02","66.6","NAN","0"],
    [1051917,"2026-05-05 06:30:00","6010","0.23600000000000002","295.2","1.013","239.7","1011.429","16.37","65.47","NAN","0"],
    [1051918,"2026-05-05 06:40:00","6011","0.718","41.52","1.829","7.001","1011.387","17.23","61.97","NAN","0"],
    [1051919,"2026-05-05 06:50:00","6012","0.6970000000000001","40.33","1.568","11.2","1011.422","17.0","61.78","NAN","0"],
    [1051920,"2026-05-05 07:00:00","6013","1.048","191.5","1.993","187.3","1011.378","17.27","62.61","NAN","0"],
    [1051921,"2026-05-05 07:10:00","6014","0.732","221.3","1.7309999999999999","240.8","1011.3489999999999","17.23","62.56","NAN","0"],
    [1051922,"2026-05-05 07:20:00","6015","0.759","151.9","1.8619999999999999","119.5","1011.498","17.84","60.08","NAN","0"],
    [1051923,"2026-05-05 07:30:00","6016","1.151","44.22","3.6260000000000003","60.17","1011.475","17.76","60.79","NAN","0"],
    [1051924,"2026-05-05 07:40:00","6017","1.328","37.66","3.365","36.84","1011.485","17.73","61.21","NAN","0"],
    [1051925,"2026-05-05 07:50:00","6018","1.724","26.99","4.671","30.35","1011.448","17.71","60.94","NAN","0"],
    [1051926,"2026-05-05 08:00:00","6019","1.4080000000000001","26.04","2.907","24.13","1011.323","18.06","57.67","NAN","0"],
    [1051927,"2026-05-05 08:10:00","6020","1.263","40.33","3.103","70.42","1011.3430000000001","17.96","57.8","NAN","0"],
    [1051928,"2026-05-05 08:20:00","6021","0.5920000000000001","19.79","1.405","75.5","1011.54","18.25","57.54","NAN","0"],
    [1051929,"2026-05-05 08:30:00","6022","1.165","188.7","2.842","185.6","1011.687","18.08","59.41","NAN","0"],
    [1051930,"2026-05-05 08:40:00","6023","1.5919999999999999","189.0","3.267","205.8","1011.732","17.29","64.76","NAN","0"],
    [1051931,"2026-05-05 08:50:00","6024","1.0490000000000002","188.2","3.495","214.3","1011.6110000000001","17.68","63.85","NAN","0"],
    [1051932,"2026-05-05 09:00:00","6025","1.105","125.4","2.156","107.9","1011.1560000000001","18.55","59.72","NAN","0"],
    [1051933,"2026-05-05 09:10:00","6026","1.71","140.5","2.7769999999999997","157.0","1011.296","18.43","59.93","NAN","0"],
    [1051934,"2026-05-05 09:20:00","6027","1.953","162.6","3.103","160.8","1011.428","18.44","60.33","NAN","0"],
    [1051935,"2026-05-05 09:30:00","6028","1.761","133.0","3.397","106.5","1011.341","18.81","59.12","NAN","0"],
    [1051936,"2026-05-05 09:40:00","6029","2.084","143.3","3.593","161.5","1011.58","18.31","62.55","NAN","0"],
    [1051937,"2026-05-05 09:50:00","6030","1.91","157.5","3.397","111.1","1011.931","17.92","64.17","NAN","0"],
    [1051938,"2026-05-05 10:00:00","6031","1.7530000000000001","147.9","3.6910000000000003","180.2","1011.7860000000001","17.69","65.0","NAN","0"],
    [1051939,"2026-05-05 10:10:00","6032","1.175","129.8","2.254","144.2","1011.712","17.56","65.27","NAN","0"],
    [1051940,"2026-05-05 10:20:00","6033","1.136","97.9","2.123","114.3","1011.577","17.6","65.25","NAN","0"],
    [1051941,"2026-05-05 10:30:00","6034","1.49","93.7","2.417","89.5","1011.48","18.19","61.99","NAN","0"],
    [1051942,"2026-05-05 10:40:00","6035","2.049","96.4","3.43","81.3","1011.535","18.0","61.92","NAN","0"],
    [1051943,"2026-05-05 10:50:00","6036","2.228","107.4","3.267","114.0","1011.582","18.12","62.94","NAN","0"],
    [1051944,"2026-05-05 11:00:00","6037","2.095","100.0","3.6260000000000003","97.1","1011.53","18.78","63.14","NAN","0"],
    [1051945,"2026-05-05 11:10:00","6038","1.9269999999999998","116.1","3.855","108.2","1011.465","18.73","61.92","NAN","0"],
    [1051946,"2026-05-05 11:20:00","6039","2.864","119.0","4.2139999999999995","108.1","1011.345","18.41","64.8","NAN","0"],
    [1051947,"2026-05-05 11:30:00","6040","2.741","117.0","4.279","108.9","1011.2460000000001","18.33","59.96","NAN","0"],
    [1051948,"2026-05-05 11:40:00","6041","2.3280000000000003","111.5","4.051","119.7","1011.2860000000001","18.32","62.44","NAN","0"],
    [1051949,"2026-05-05 11:50:00","6042","2.572","120.7","3.7569999999999997","108.0","1011.331","17.99","65.1","NAN","0"],
    [1051950,"2026-05-05 12:00:00","6043","2.49","130.1","3.822","144.8","1011.2139999999999","17.81","66.23","NAN","0"],
    [1051951,"2026-05-05 12:10:00","6044","2.64","126.2","4.247","118.5","1011.159","17.9","67.87","NAN","0"],
    [1051952,"2026-05-05 12:20:00","6045","2.096","139.7","4.2139999999999995","156.3","1011.064","18.54","66.71","NAN","0"],
    [1051953,"2026-05-05 12:30:00","6046","2.162","123.9","3.397","147.5","1010.9739999999999","18.39","67.46","NAN","0"],
    [1051954,"2026-05-05 12:40:00","6047","2.305","122.8","3.7239999999999998","106.1","1010.954","18.14","67.97","NAN","0"],
    [1051955,"2026-05-05 12:50:00","6048","2.24","117.4","3.7569999999999997","106.8","1010.88","18.67","67.24","NAN","0"],
    [1051956,"2026-05-05 13:00:00","6049","2.29","130.9","3.659","115.9","1010.86","18.25","66.15","NAN","0"],
    [1051957,"2026-05-05 13:10:00","6050","2.677","126.5","4.704","163.1","1010.852","18.27","63.68","NAN","0"],
    [1051958,"2026-05-05 13:20:00","6051","2.747","154.7","4.247","162.4","1010.85","17.82","70.39","NAN","0"],
    [1051959,"2026-05-05 13:30:00","6052","2.783","136.1","4.965","159.7","1010.735","17.75","70.63","NAN","0"],
    [1051960,"2026-05-05 13:40:00","6053","2.822","152.8","4.377","151.1","1010.706","17.75","70.37","NAN","0"],
    [1051961,"2026-05-05 13:50:00","6054","2.451","154.9","4.1160000000000005","147.0","1010.695","17.65","69.57","NAN","0"],
    [1051962,"2026-05-05 14:00:00","6055","1.859","138.8","3.365","106.7","1010.581","18.14","64.16","NAN","0"],
    [1051963,"2026-05-05 14:10:00","6056","1.892","132.9","3.887","153.5","1010.446","18.41","64.67","NAN","0"],
    [1051964,"2026-05-05 14:20:00","6057","2.548","149.6","3.985","156.9","1010.352","17.95","68.91","NAN","0"],
    [1051965,"2026-05-05 14:30:00","6058","2.3890000000000002","127.4","3.855","115.9","1010.217","17.77","69.3","NAN","0"],
    [1051966,"2026-05-05 14:40:00","6059","2.6039999999999996","157.2","3.659","164.4","1010.085","17.74","70.78","NAN","0"],
    [1051967,"2026-05-05 14:50:00","6060","2.025","139.1","3.0380000000000003","150.7","1009.9960000000001","17.97","71.74","NAN","0"],
    [1051968,"2026-05-05 15:00:00","6061","1.906","137.3","3.332","120.8","1009.9630000000001","18.14","72.34","NAN","0"],
    [1051969,"2026-05-05 15:10:00","6062","2.059","120.3","3.397","112.8","1009.988","18.09","72.84","NAN","0"],
    [1051970,"2026-05-05 15:20:00","6063","2.104","132.4","3.6260000000000003","93.6","1010.03","18.25","72.35","NAN","0"],
    [1051971,"2026-05-05 15:30:00","6064","1.893","121.8","3.0380000000000003","115.3","1010.0160000000001","17.8","74.95","NAN","0"],
    [1051972,"2026-05-05 15:40:00","6065","1.7009999999999998","136.8","3.234","105.4","1010.078","17.99","74.69","NAN","0"],
    [1051973,"2026-05-05 15:50:00","6066","1.5019999999999998","156.3","2.613","150.0","1010.185","17.83","74.84","NAN","0"],
    [1051974,"2026-05-05 16:00:00","6067","1.47","150.6","2.417","182.1","1010.095","17.85","75.58","NAN","0"],
    [1051975,"2026-05-05 16:10:00","6068","1.755","149.3","3.299","143.6","1009.966","18.12","74.91","NAN","0"],
    [1051976,"2026-05-05 16:20:00","6069","1.3319999999999999","151.4","2.6460000000000004","166.3","1010.013","17.91","75.53","NAN","0"],
    [1051977,"2026-05-05 16:30:00","6070","0.792","179.7","1.699","201.0","1010.205","18.23","73.06","NAN","0"],
    [1051978,"2026-05-05 16:40:00","6071","0.95","164.1","1.9269999999999998","178.4","1010.195","18.4","71.05","NAN","0"],
    [1051979,"2026-05-05 16:50:00","6072","1.186","123.9","2.025","116.4","1010.225","18.46","71.86","NAN","0"],
    [1051980,"2026-05-05 17:00:00","6073","1.2229999999999999","133.6","2.0909999999999997","142.3","1010.217","18.18","75.2","NAN","0"],
    [1051981,"2026-05-05 17:10:00","6074","1.089","93.0","2.0580000000000003","70.21","1010.221","18.23","74.02","NAN","0"],
    [1051982,"2026-05-05 17:20:00","6075","1.636","60.31","3.365","60.56","1010.221","18.59","62.61","NAN","0"],
    [1051983,"2026-05-05 17:30:00","6076","1.761","53.04","4.606","58.15","1010.212","18.99","53.5","NAN","0"],
    [1051984,"2026-05-05 17:40:00","6077","1.3219999999999998","332.8","3.463","260.9","1010.2719999999999","19.09","49.32","NAN","0"],
    [1051985,"2026-05-05 17:50:00","6078","1.422","230.4","3.463","320.5","1010.047","19.31","52.31","NAN","0"],
    [1051986,"2026-05-05 18:00:00","6079","1.442","194.8","3.234","187.3","1010.132","18.87","56.65","NAN","0"],
    [1051987,"2026-05-05 18:10:00","6080","1.874","189.9","3.1689999999999996","185.3","1010.113","18.68","62.75","NAN","0"],
    [1051988,"2026-05-05 18:20:00","6081","2.03","182.5","3.0380000000000003","184.5","1009.949","18.08","69.73","NAN","0"],
    [1051989,"2026-05-05 18:30:00","6082","2.021","183.9","3.299","181.1","1009.7689999999999","18.09","71.39","NAN","0"],
    [1051990,"2026-05-05 18:40:00","6083","1.9569999999999999","185.0","3.43","182.1","1009.585","18.04","73.44","NAN","0"],
    [1051991,"2026-05-05 18:50:00","6084","2.214","184.7","3.7889999999999997","176.5","1009.432","17.81","77.55","NAN","0"],
    [1051992,"2026-05-05 19:00:00","6085","1.4509999999999998","187.5","3.1689999999999996","183.6","1009.572","17.77","79.19","NAN","0"],
    [1051993,"2026-05-05 19:10:00","6086","1.6840000000000002","180.7","3.005","176.9","1009.716","17.64","80.8","NAN","0"],
    [1051994,"2026-05-05 19:20:00","6087","0.774","198.8","1.7309999999999999","180.5","1009.8430000000001","17.61","80.5","NAN","0"],
    [1051995,"2026-05-05 19:30:00","6088","1.5230000000000001","56.77","4.508","1.919","1009.855","17.4","72.74","NAN","0"],
    [1051996,"2026-05-05 19:40:00","6089","2.003","14.67","3.9530000000000003","3.5389999999999997","1010.0830000000001","16.91","62.73","NAN","0"],
    [1051997,"2026-05-05 19:50:00","6090","1.8980000000000001","3.591","3.985","7.933","1010.3560000000001","16.91","62.07","NAN","0"],
    [1051998,"2026-05-05 20:00:00","6091","1.037","331.3","3.463","312.7","1010.569","16.94","61.39","NAN","0"],
    [1051999,"2026-05-05 20:10:00","6092","0.955","328.0","2.189","347.1","1010.7760000000001","17.1","60.13","NAN","0"],
    [1052000,"2026-05-05 20:20:00","6093","1.074","328.8","2.483","309.7","1010.793","17.41","58.17","NAN","0"],
    [1052001,"2026-05-05 20:30:00","6094","0.614","286.2","1.535","323.5","1010.797","17.76","56.98","NAN","0"],
    [1052002,"2026-05-05 20:40:00","6095","0.607","258.6","1.5030000000000001","258.1","1010.827","17.9","55.95","NAN","0"],
    [1052003,"2026-05-05 20:50:00","6096","0.922","211.4","1.7309999999999999","264.1","1010.915","17.99","55.59","NAN","0"],
    [1052004,"2026-05-05 21:00:00","6097","0.903","194.3","1.7309999999999999","212.8","1010.83","17.72","58.82","NAN","0"],
    [1052005,"2026-05-05 21:10:00","6098","1.208","221.4","2.45","227.6","1010.9860000000001","17.76","58.03","NAN","0"],
    [1052006,"2026-05-05 21:20:00","6099","0.95","215.9","1.601","216.7","1011.184","17.73","57.7","NAN","0"],
    [1052007,"2026-05-05 21:30:00","6100","1.0290000000000001","246.5","2.0909999999999997","239.5","1011.221","17.73","56.78","NAN","0"],
    [1052008,"2026-05-05 21:40:00","6101","0.799","273.6","2.319","291.9","1011.3330000000001","17.79","55.6","NAN","0"],
    [1052009,"2026-05-05 21:50:00","6102","0.723","347.2","1.9269999999999998","10.06","1011.393","17.88","54.06","NAN","0"],
    [1052010,"2026-05-05 22:00:00","6103","0.674","314.3","1.601","325.5","1011.3","17.84","54.11","NAN","0"],
    [1052011,"2026-05-05 22:10:00","6104","0.934","334.4","2.352","311.9","1011.188","17.78","54.93","NAN","0"],
    [1052012,"2026-05-05 22:20:00","6105","0.914","279.1","1.797","266.3","1011.1360000000001","17.78","55.8","NAN","0"],
    [1052013,"2026-05-05 22:30:00","6106","1.0979999999999999","288.2","2.287","293.2","1011.1080000000001","17.73","57.17","NAN","0"],
    [1052014,"2026-05-05 22:40:00","6107","0.812","303.0","2.123","304.3","1010.9069999999999","17.59","58.83","NAN","0"],
    [1052015,"2026-05-05 22:50:00","6108","0.746","293.8","2.0909999999999997","304.2","1010.775","17.65","59.68","NAN","0"],
    [1052016,"2026-05-05 23:00:00","6109","0.518","307.2","2.254","260.8","1010.586","17.62","60.18","NAN","0"],
    [1052017,"2026-05-05 23:10:00","6110","0.584","241.9","1.601","238.3","1010.443","17.53","61.5","NAN","0"],
    [1052018,"2026-05-05 23:20:00","6111","0.248","125.2","0.8490000000000001","122.3","1010.505","17.36","62.47","NAN","0"],
    [1052019,"2026-05-05 23:30:00","6112","1.1520000000000001","53.71","3.005","27.06","1010.757","17.07","63.61","NAN","0"],
    [1052020,"2026-05-05 23:40:00","6113","1.1320000000000001","20.78","2.385","18.3","1010.9110000000001","16.65","65.73","NAN","0"],
    [1052021,"2026-05-05 23:50:00","6114","1.272","16.12","2.9730000000000003","358.8","1010.827","16.17","69.48","NAN","0"],
    [1052022,"2026-05-06 00:00:00","6115","1.375","12.78","3.5610000000000004","28.68","1010.8589999999999","15.9","70.96","NAN","0"],
    [1052023,"2026-05-06 00:10:00","6116","1.171","15.84","3.463","12.51","1010.8810000000001","15.72","71.72","NAN","0"],
    [1052024,"2026-05-06 00:20:00","6117","1.3259999999999998","10.48","3.201","358.0","1010.8839999999999","15.53","72.15","NAN","0"],
    [1052025,"2026-05-06 00:30:00","6118","1.723","6.069","3.136","38.36","1010.8430000000001","15.39","72.12","NAN","0"],
    [1052026,"2026-05-06 00:40:00","6119","1.173","358.7","2.254","356.9","1010.831","15.36","71.73","NAN","0"],
    [1052027,"2026-05-06 00:50:00","6120","0.6509999999999999","356.5","2.123","346.5","1010.813","15.43","71.13","NAN","0"],
    [1052028,"2026-05-06 01:00:00","6121","0.276","4.747","0.8170000000000001","40.28","1010.745","15.53","70.39","NAN","0"],
    [1052029,"2026-05-06 01:10:00","6122","0.836","37.89","1.535","4.2219999999999995","1010.622","15.58","69.78","NAN","0"],
    [1052030,"2026-05-06 01:20:00","6123","0.115","10.71","0.653","340.7","1010.5980000000001","15.56","69.03","NAN","0"],
    [1052031,"2026-05-06 01:30:00","6124","0.07400000000000001","302.8","0.6859999999999999","282.8","1010.605","15.35","69.49","NAN","0"],
    [1052032,"2026-05-06 01:40:00","6125","0.6809999999999999","60.81","1.633","26.44","1010.573","15.38","69.17","NAN","0"],
    [1052033,"2026-05-06 01:50:00","6126","0.579","40.34","1.5030000000000001","26.05","1010.75","15.09","69.92","NAN","0"],
    [1052034,"2026-05-06 02:00:00","6127","0.374","11.14","1.111","73.79","1010.712","14.87","71.23","NAN","0"],
    [1052035,"2026-05-06 02:10:00","6128","0.621","358.9","1.3719999999999999","5.587000000000001","1010.752","14.98","71.0","NAN","0"],
    [1052036,"2026-05-06 02:20:00","6129","0.267","284.0","0.9470000000000001","288.1","1010.79","15.29","69.63","NAN","0"],
    [1052037,"2026-05-06 02:30:00","6130","0.727","67.84","1.535","64.19","1010.8539999999999","15.17","70.33","NAN","0"],
    [1052038,"2026-05-06 02:40:00","6131","0.8009999999999999","56.16","1.535","56.61","1010.8489999999999","14.78","72.58","NAN","0"],
    [1052039,"2026-05-06 02:50:00","6132","0.25","44.9","0.6859999999999999","58.81","1010.852","14.77","72.37","NAN","0"],
    [1052040,"2026-05-06 03:00:00","6133","0.6990000000000001","41.49","1.339","30.96","1010.8439999999999","14.85","71.46","NAN","0"],
    [1052041,"2026-05-06 03:10:00","6134","0.345","16.34","1.143","38.66","1010.8489999999999","14.84","71.51","NAN","0"],
    [1052042,"2026-05-06 03:20:00","6135","0.239","19.02","0.7509999999999999","22.85","1010.837","14.81","71.67","NAN","0"],
    [1052043,"2026-05-06 03:30:00","6136","0.13699999999999998","295.6","0.8170000000000001","277.2","1010.847","14.85","71.68","NAN","0"],
    [1052044,"2026-05-06 03:40:00","6137","0.201","175.1","0.7190000000000001","127.8","1010.8539999999999","14.93","68.96","NAN","0"],
    [1052045,"2026-05-06 03:50:00","6138","0.615","42.15","1.274","359.9","1010.8539999999999","14.94","69.28","NAN","0"],
    [1052046,"2026-05-06 04:00:00","6139","0.233","287.1","1.078","287.9","1010.8889999999999","14.76","69.51","NAN","0"],
    [1052047,"2026-05-06 04:10:00","6140","1.105","242.4","2.7439999999999998","258.9","1010.9889999999999","14.9","64.06","NAN","0"],
    [1052048,"2026-05-06 04:20:00","6141","1.107","236.8","2.123","255.4","1010.949","14.97","62.43","NAN","0"],
    [1052049,"2026-05-06 04:30:00","6142","0.885","261.1","2.45","257.8","1010.9839999999999","14.91","61.72","NAN","0"],
    [1052050,"2026-05-06 04:40:00","6143","0.938","271.8","2.123","283.4","1011.079","15.07","60.41","NAN","0"],
    [1052051,"2026-05-06 04:50:00","6144","0.764","268.7","2.0909999999999997","303.8","1011.091","15.14","59.54","NAN","0"],
    [1052052,"2026-05-06 05:00:00","6145","0.691","340.0","1.535","7.825","1011.2330000000001","15.05","62.94","NAN","0"],
    [1052053,"2026-05-06 05:10:00","6146","0.544","26.84","1.633","14.12","1011.34","14.52","67.8","NAN","0"],
    [1052054,"2026-05-06 05:20:00","6147","0.6","44.98","1.47","26.42","1011.44","14.58","64.89","NAN","0"],
    [1052055,"2026-05-06 05:30:00","6148","0.8490000000000001","50.57","1.7309999999999999","48.28","1011.477","14.82","63.43","NAN","0"],
    [1052056,"2026-05-06 05:40:00","6149","0.7829999999999999","21.59","1.764","41.71","1011.57","14.62","63.57","NAN","0"],
    [1052057,"2026-05-06 05:50:00","6150","0.943","3.02","2.221","310.4","1011.6039999999999","14.88","60.05","NAN","0"],
    [1052058,"2026-05-06 06:00:00","6151","1.2930000000000001","316.3","4.1160000000000005","303.6","1011.6039999999999","15.69","54.63","NAN","0"],
    [1052059,"2026-05-06 06:10:00","6152","1.133","337.7","2.6460000000000004","299.6","1011.5989999999999","15.82","53.08","NAN","0"],
    [1052060,"2026-05-06 06:20:00","6153","0.977","347.7","2.7439999999999998","307.0","1011.653","16.02","52.2","NAN","0"],
    [1052061,"2026-05-06 06:30:00","6154","1.072","357.1","2.548","27.59","1011.672","16.01","52.38","NAN","0"],
    [1052062,"2026-05-06 06:40:00","6155","1.58","15.18","3.299","359.2","1011.7289999999999","16.07","52.5","NAN","0"],
    [1052063,"2026-05-06 06:50:00","6156","1.84","30.87","3.659","5.276","1011.883","15.76","53.64","NAN","0"],
    [1052064,"2026-05-06 07:00:00","6157","1.4480000000000002","33.87","3.495","66.32","1012.0139999999999","16.03","53.74","NAN","0"],
    [1052065,"2026-05-06 07:10:00","6158","1.705","26.14","3.92","34.25","1012.018","16.04","55.72","NAN","0"],
    [1052066,"2026-05-06 07:20:00","6159","1.921","45.33","3.855","73.94","1012.178","15.9","57.61","NAN","0"],
    [1052067,"2026-05-06 07:30:00","6160","1.545","41.73","3.463","53.68","1012.212","15.64","58.91","NAN","0"],
    [1052068,"2026-05-06 07:40:00","6161","1.151","111.2","2.0580000000000003","97.8","1012.362","15.89","57.79","NAN","0"],
    [1052069,"2026-05-06 07:50:00","6162","0.8540000000000001","45.47","1.9269999999999998","18.21","1012.459","16.53","54.53","NAN","0"],
    [1052070,"2026-05-06 08:00:00","6163","0.9620000000000001","127.7","2.254","93.7","1012.561","16.83","53.55","NAN","0"],
    [1052071,"2026-05-06 08:10:00","6164","0.97","132.9","2.45","111.5","1012.4760000000001","16.76","54.69","NAN","0"],
    [1052072,"2026-05-06 08:20:00","6165","1.347","109.4","2.7769999999999997","111.9","1012.461","17.2","52.97","NAN","0"],
    [1052073,"2026-05-06 08:30:00","6166","0.8059999999999999","130.8","1.96","93.6","1012.569","17.81","50.43","NAN","0"],
    [1052074,"2026-05-06 08:40:00","6167","1.7380000000000002","146.4","3.234","113.6","1012.698","17.44","51.19","NAN","0"],
    [1052075,"2026-05-06 08:50:00","6168","1.712","150.5","3.201","99.4","1012.698","17.28","51.6","NAN","0"],
    [1052076,"2026-05-06 09:00:00","6169","2.009","112.6","3.6910000000000003","104.5","1012.623","17.62","50.22","NAN","0"],
    [1052077,"2026-05-06 09:10:00","6170","1.008","114.0","3.005","150.1","1012.6439999999999","18.33","46.76","NAN","0"],
    [1052078,"2026-05-06 09:20:00","6171","1.3130000000000002","238.1","3.6910000000000003","273.5","1012.701","18.82","43.85","NAN","0"],
    [1052079,"2026-05-06 09:30:00","6172","2.492","247.5","5.227","257.1","1012.701","19.23","40.86","NAN","0"],
    [1052080,"2026-05-06 09:40:00","6173","1.607","267.4","3.7569999999999997","252.8","1012.7080000000001","19.36","40.94","NAN","0"],
    [1052081,"2026-05-06 09:50:00","6174","1.475","261.7","3.234","315.8","1012.703","19.52","39.38","NAN","0"],
    [1052082,"2026-05-06 10:00:00","6175","1.8519999999999999","296.5","3.9530000000000003","280.3","1012.5980000000001","19.46","39.68","NAN","0"],
    [1052083,"2026-05-06 10:10:00","6176","0.963","347.0","2.7110000000000003","19.41","1012.414","19.75","39.82","NAN","0"],
    [1052084,"2026-05-06 10:20:00","6177","1.077","262.5","2.45","276.6","1012.377","20.18","39.43","NAN","0"],
    [1052085,"2026-05-06 10:30:00","6178","1.483","157.9","3.985","112.1","1012.466","20.07","41.54","NAN","0"],
    [1052086,"2026-05-06 10:40:00","6179","2.387","188.0","4.573","180.9","1012.334","19.38","43.32","NAN","0"],
    [1052087,"2026-05-06 10:50:00","6180","3.134","182.8","4.998","176.8","1012.21","18.48","45.58","NAN","0"],
    [1052088,"2026-05-06 11:00:00","6181","2.747","185.8","4.312","181.4","1012.21","19.04","44.4","NAN","0"],
    [1052089,"2026-05-06 11:10:00","6182","3.134","173.2","5.684","181.1","1012.177","19.01","42.81","NAN","0"],
    [1052090,"2026-05-06 11:20:00","6183","3.492","180.9","5.847","177.4","1012.068","18.63","45.47","NAN","0"],
    [1052091,"2026-05-06 11:30:00","6184","3.364","180.2","5.521","181.0","1012.0010000000001","18.53","48.25","NAN","0"],
    [1052092,"2026-05-06 11:40:00","6185","3.2910000000000004","184.3","5.227","176.2","1011.9630000000001","18.47","48.36","NAN","0"],
    [1052093,"2026-05-06 11:50:00","6186","2.533","194.0","4.4430000000000005","187.3","1011.961","18.95","45.54","NAN","0"],
    [1052094,"2026-05-06 12:00:00","6187","3.1489999999999996","179.1","4.737","180.3","1011.943","18.8","46.26","NAN","0"],
    [1052095,"2026-05-06 12:10:00","6188","3.345","178.3","5.292000000000001","180.2","1011.955","18.59","48.05","NAN","0"],
    [1052096,"2026-05-06 12:20:00","6189","3.665","178.1","5.749","176.2","1011.95","18.87","45.49","NAN","0"],
    [1052097,"2026-05-06 12:30:00","6190","4.052","176.7","5.684","171.1","1011.909","18.12","49.26","NAN","0"],
    [1052098,"2026-05-06 12:40:00","6191","3.727","179.8","5.978","178.9","1011.961","18.2","48.61","NAN","0"],
    [1052099,"2026-05-06 12:50:00","6192","3.573","177.7","5.455","186.7","1011.873","18.25","49.08","NAN","0"],
    [1052100,"2026-05-06 13:00:00","6193","3.695","180.7","5.7170000000000005","179.1","1011.799","18.05","51.06","NAN","0"],
    [1052101,"2026-05-06 13:10:00","6194","3.5980000000000003","182.6","5.586","179.6","1011.758","18.16","51.03","NAN","0"],
    [1052102,"2026-05-06 13:20:00","6195","3.622","180.4","5.194","188.3","1011.717","18.05","52.18","NAN","0"],
    [1052103,"2026-05-06 13:30:00","6196","3.142","182.1","5.129","185.5","1011.6610000000001","18.5","52.14","NAN","0"],
    [1052104,"2026-05-06 13:40:00","6197","3.475","181.3","5.4879999999999995","184.1","1011.587","18.35","52.68","NAN","0"],
    [1052105,"2026-05-06 13:50:00","6198","3.497","179.5","4.998","190.2","1011.46","18.42","51.99","NAN","0"],
    [1052106,"2026-05-06 14:00:00","6199","3.734","177.7","5.2589999999999995","174.7","1011.418","18.24","53.15","NAN","0"],
    [1052107,"2026-05-06 14:10:00","6200","3.6860000000000004","180.6","5.7170000000000005","179.8","1011.336","18.4","54.03","NAN","0"],
    [1052108,"2026-05-06 14:20:00","6201","3.0439999999999996","180.6","4.769","173.4","1011.313","18.56","53.56","NAN","0"],
    [1052109,"2026-05-06 14:30:00","6202","3.659","182.5","5.684","183.4","1011.2310000000001","18.54","53.36","NAN","0"],
    [1052110,"2026-05-06 14:40:00","6203","3.648","182.7","5.2589999999999995","188.0","1011.194","18.36","53.41","NAN","0"],
    [1052111,"2026-05-06 14:50:00","6204","3.727","178.1","6.011","178.0","1011.082","18.33","54.58","NAN","0"],
    [1052112,"2026-05-06 15:00:00","6205","3.306","179.8","5.455","182.4","1011.079","18.48","53.59","NAN","0"],
    [1052113,"2026-05-06 15:10:00","6206","3.285","183.8","5.194","183.6","1010.977","18.52","52.37","NAN","0"],
    [1052114,"2026-05-06 15:20:00","6207","3.12","176.3","5.422999999999999","162.3","1010.962","18.63","52.69","NAN","0"],
    [1052115,"2026-05-06 15:30:00","6208","2.839","185.6","5.1610000000000005","181.3","1010.8969999999999","18.6","54.36","NAN","0"],
    [1052116,"2026-05-06 15:40:00","6209","2.569","177.7","4.573","177.8","1010.84","18.81","53.14","NAN","0"],
    [1052117,"2026-05-06 15:50:00","6210","2.681","186.5","4.279","177.5","1010.78","18.8","52.64","NAN","0"],
    [1052118,"2026-05-06 16:00:00","6211","2.8289999999999997","180.6","4.671","177.5","1010.7280000000001","18.69","54.33","NAN","0"],
    [1052119,"2026-05-06 16:10:00","6212","2.0669999999999997","195.0","3.855","202.6","1010.745","18.97","54.31","NAN","0"],
    [1052120,"2026-05-06 16:20:00","6213","2.363","188.6","4.312","178.6","1010.738","18.77","55.74","NAN","0"],
    [1052121,"2026-05-06 16:30:00","6214","1.965","188.7","3.495","181.9","1010.716","18.52","58.05","NAN","0"],
    [1052122,"2026-05-06 16:40:00","6215","2.303","186.7","4.018","174.6","1010.7189999999999","18.56","59.86","NAN","0"],
    [1052123,"2026-05-06 16:50:00","6216","2.298","176.6","3.593","144.5","1010.721","18.31","62.91","NAN","0"],
    [1052124,"2026-05-06 17:00:00","6217","1.952","177.9","3.365","178.1","1010.773","18.22","64.15","NAN","0"],
    [1052125,"2026-05-06 17:10:00","6218","2.186","185.1","4.018","168.6","1010.877","18.2","63.69","NAN","0"],
    [1052126,"2026-05-06 17:20:00","6219","1.979","173.6","3.201","171.8","1010.982","18.19","62.44","NAN","0"],
    [1052127,"2026-05-06 17:30:00","6220","1.906","182.8","3.201","174.4","1010.9680000000001","18.29","61.52","NAN","0"],
    [1052128,"2026-05-06 17:40:00","6221","2.208","178.3","3.365","187.7","1011.075","18.08","61.26","NAN","0"],
    [1052129,"2026-05-06 17:50:00","6222","2.059","180.1","3.365","180.6","1011.23","18.07","61.86","NAN","0"],
    [1052130,"2026-05-06 18:00:00","6223","2.244","182.0","3.495","174.0","1011.2280000000001","18.09","62.16","NAN","0"],
    [1052131,"2026-05-06 18:10:00","6224","2.023","180.2","3.6910000000000003","184.9","1011.317","17.96","62.23","NAN","0"],
    [1052132,"2026-05-06 18:20:00","6225","2.0909999999999997","181.6","3.332","178.0","1011.395","17.83","62.48","NAN","0"],
    [1052133,"2026-05-06 18:30:00","6226","1.611","169.4","2.8089999999999997","150.6","1011.4889999999999","17.87","62.64","NAN","0"],
    [1052134,"2026-05-06 18:40:00","6227","1.525","183.5","3.0380000000000003","179.7","1011.55","17.8","62.19","NAN","0"],
    [1052135,"2026-05-06 18:50:00","6228","1.037","176.9","1.7309999999999999","169.9","1011.73","17.81","61.7","NAN","0"],
    [1052136,"2026-05-06 19:00:00","6229","0.978","181.3","2.0909999999999997","183.8","1011.7819999999999","17.76","62.53","NAN","0"],
    [1052137,"2026-05-06 19:10:00","6230","1.325","180.7","2.483","183.5","1011.883","17.64","63.01","NAN","0"],
    [1052138,"2026-05-06 19:20:00","6231","0.8540000000000001","208.8","1.535","210.3","1012.018","17.77","62.01","NAN","0"],
    [1052139,"2026-05-06 19:30:00","6232","0.722","162.6","1.797","147.1","1012.0930000000001","17.74","62.92","NAN","0"],
    [1052140,"2026-05-06 19:40:00","6233","0.8959999999999999","174.3","1.699","150.6","1012.222","17.67","63.43","NAN","0"],
    [1052141,"2026-05-06 19:50:00","6234","0.78","169.5","1.307","191.4","1012.3960000000001","17.62","63.79","NAN","0"],
    [1052142,"2026-05-06 20:00:00","6235","0.7","206.8","1.4369999999999998","208.6","1012.535","17.7","64.46","NAN","0"],
    [1052143,"2026-05-06 20:10:00","6236","0.307","164.3","0.9470000000000001","178.1","1012.6569999999999","17.63","65.73","NAN","0"],
    [1052144,"2026-05-06 20:20:00","6237","0.316","229.3","1.013","247.7","1012.818","17.54","66.27","NAN","0"],
    [1052145,"2026-05-06 20:30:00","6238","0.35100000000000003","222.9","0.915","216.0","1013.074","17.53","67.03","NAN","0"],
    [1052146,"2026-05-06 20:40:00","6239","0.5579999999999999","198.1","1.078","203.0","1013.2310000000001","17.56","68.17","NAN","0"],
    [1052147,"2026-05-06 20:50:00","6240","0.27399999999999997","208.3","0.6859999999999999","204.7","1013.298","17.52","69.21","NAN","0"],
    [1052148,"2026-05-06 21:00:00","6241","0.384","195.8","0.653","193.7","1013.304","17.47","69.25","NAN","0"],
    [1052149,"2026-05-06 21:10:00","6242","0.091","209.7","0.6859999999999999","211.4","1013.41","17.47","70.04","NAN","0"],
    [1052150,"2026-05-06 21:20:00","6243","0.522","190.6","1.078","200.1","1013.435","17.45","71.0","NAN","0"],
    [1052151,"2026-05-06 21:30:00","6244","0.499","227.2","1.143","244.4","1013.375","17.54","71.12","NAN","0"],
    [1052152,"2026-05-06 21:40:00","6245","0.42100000000000004","212.0","1.2409999999999999","185.5","1013.334","17.61","70.34","NAN","0"],
    [1052153,"2026-05-06 21:50:00","6246","0.377","181.6","1.078","174.3","1013.437","17.55","71.03","NAN","0"],
    [1052154,"2026-05-06 22:00:00","6247","0.281","151.2","0.8490000000000001","156.9","1013.4060000000001","17.48","71.17","NAN","0"],
    [1052155,"2026-05-06 22:10:00","6248","0.154","192.7","0.7190000000000001","206.7","1013.426","17.46","70.85","NAN","0"],
    [1052156,"2026-05-06 22:20:00","6249","0.242","173.2","0.784","160.6","1013.432","17.56","71.09","NAN","0"],
    [1052157,"2026-05-06 22:30:00","6250","0.349","98.5","1.045","92.5","1013.3839999999999","17.45","70.75","NAN","0"],
    [1052158,"2026-05-06 22:40:00","6251","0.861","73.35","1.8619999999999999","58.19","1013.409","17.5","72.11","NAN","0"],
    [1052159,"2026-05-06 22:50:00","6252","1.197","48.99","2.7439999999999998","37.64","1013.441","17.36","71.9","NAN","0"],
    [1052160,"2026-05-06 23:00:00","6253","0.696","30.54","1.8619999999999999","357.5","1013.449","17.13","70.97","NAN","0"],
    [1052161,"2026-05-06 23:10:00","6254","1.099","47.22","2.548","16.86","1013.557","17.06","70.26","NAN","0"],
    [1052162,"2026-05-06 23:20:00","6255","0.8590000000000001","32.22","1.9269999999999998","14.0","1013.573","17.02","70.21","NAN","0"],
    [1052163,"2026-05-06 23:30:00","6256","0.961","29.63","2.385","358.5","1013.46","16.99","70.5","NAN","0"],
    [1052164,"2026-05-06 23:40:00","6257","1.768","41.63","3.6260000000000003","37.8","1013.6410000000001","16.96","71.47","NAN","0"],
    [1052165,"2026-05-06 23:50:00","6258","1.7180000000000002","46.99","3.463","27.53","1013.645","16.78","74.5","NAN","0"],
    [1052166,"2026-05-07 00:00:00","6259","2.114","55.46","4.606","69.62","1013.633","16.63","76.08","NAN","0"],
    [1052167,"2026-05-07 00:10:00","6260","2.144","57.42","4.671","69.49","1013.6339999999999","16.64","77.39","NAN","0"],
    [1052168,"2026-05-07 00:20:00","6261","1.709","60.74","3.887","40.99","1013.553","16.56","79.48","NAN","0"],
    [1052169,"2026-05-07 00:30:00","6262","2.059","50.77","4.475","39.6","1013.454","16.44","77.3","NAN","0"],
    [1052170,"2026-05-07 00:40:00","6263","1.4569999999999999","52.65","3.659","66.51","1013.435","16.45","75.1","NAN","0"],
    [1052171,"2026-05-07 00:50:00","6264","1.517","59.2","3.463","63.74","1013.437","16.46","75.52","NAN","0"],
    [1052172,"2026-05-07 01:00:00","6265","1.71","56.1","4.279","72.01","1013.37","16.45","77.23","NAN","0"],
    [1052173,"2026-05-07 01:10:00","6266","1.921","73.48","3.136","75.61","1013.329","16.45","80.6","NAN","0"],
    [1052174,"2026-05-07 01:20:00","6267","1.53","66.57","3.071","72.87","1013.318","16.35","82.2","NAN","0"],
    [1052175,"2026-05-07 01:30:00","6268","1.7930000000000001","43.11","3.136","31.66","1013.327","16.24","81.4","NAN","0"],
    [1052176,"2026-05-07 01:40:00","6269","1.55","42.49","2.875","56.71","1013.308","16.13","81.6","NAN","0"],
    [1052177,"2026-05-07 01:50:00","6270","1.01","34.64","2.0909999999999997","53.2","1013.252","16.04","80.8","NAN","0"],
    [1052178,"2026-05-07 02:00:00","6271","0.746","16.98","2.254","13.34","1013.18","15.98","79.64","NAN","0"],
    [1052179,"2026-05-07 02:10:00","6272","0.997","33.2","2.156","8.31","1013.09","15.88","79.06","NAN","0"],
    [1052180,"2026-05-07 02:20:00","6273","0.8220000000000001","23.78","1.829","59.12","1013.082","15.76","78.82","NAN","0"],
    [1052181,"2026-05-07 02:30:00","6274","0.653","35.75","1.568","55.52","1013.115","15.69","78.64","NAN","0"],
    [1052182,"2026-05-07 02:40:00","6275","0.496","30.99","1.764","350.8","1013.0989999999999","15.69","78.36","NAN","0"],
    [1052183,"2026-05-07 02:50:00","6276","0.628","10.93","1.4369999999999998","356.4","1013.207","15.71","77.38","NAN","0"],
    [1052184,"2026-05-07 03:00:00","6277","1.067","17.35","2.156","9.57","1013.221","15.76","76.22","NAN","0"],
    [1052185,"2026-05-07 03:10:00","6278","0.8540000000000001","42.09","1.764","45.79","1013.2130000000001","15.74","76.12","NAN","0"],
    [1052186,"2026-05-07 03:20:00","6279","0.621","14.81","1.274","348.8","1013.238","15.66","76.33","NAN","0"],
    [1052187,"2026-05-07 03:30:00","6280","0.7120000000000001","8.9","1.5030000000000001","19.58","1013.137","15.64","76.35","NAN","0"],
    [1052188,"2026-05-07 03:40:00","6281","0.77","14.12","2.221","18.6","1013.0880000000001","15.59","76.34","NAN","0"],
    [1052189,"2026-05-07 03:50:00","6282","0.7040000000000001","18.41","1.764","14.12","1013.0060000000001","15.55","76.52","NAN","0"],
    [1052190,"2026-05-07 04:00:00","6283","0.34700000000000003","26.5","0.9470000000000001","9.56","1013.077","15.52","76.6","NAN","0"],
    [1052191,"2026-05-07 04:10:00","6284","0.7020000000000001","35.19","1.5030000000000001","37.03","1013.092","15.45","76.95","NAN","0"],
    [1052192,"2026-05-07 04:20:00","6285","0.722","31.15","2.189","24.47","1013.097","15.38","77.39","NAN","0"],
    [1052193,"2026-05-07 04:30:00","6286","0.71","23.43","2.189","359.8","1013.091","15.32","77.53","NAN","0"],
    [1052194,"2026-05-07 04:40:00","6287","0.821","19.32","2.123","37.72","1013.095","15.32","77.49","NAN","0"],
    [1052195,"2026-05-07 04:50:00","6288","0.867","29.95","2.123","60.63","1013.0419999999999","15.21","78.1","NAN","0"],
    [1052196,"2026-05-07 05:00:00","6289","1.07","13.04","3.332","24.07","1013.0319999999999","15.21","78.19","NAN","0"],
    [1052197,"2026-05-07 05:10:00","6290","0.826","15.68","1.993","10.63","1013.127","15.15","78.41","NAN","0"],
    [1052198,"2026-05-07 05:20:00","6291","0.7390000000000001","40.79","1.47","53.47","1013.331","15.26","78.07","NAN","0"],
    [1052199,"2026-05-07 05:30:00","6292","0.8290000000000001","21.88","2.0580000000000003","0.079","1013.441","15.35","77.62","NAN","0"],
    [1052200,"2026-05-07 05:40:00","6293","0.925","30.61","2.123","24.98","1013.4","15.39","77.21","NAN","0"],
    [1052201,"2026-05-07 05:50:00","6294","1.094","4.505","2.417","7.984","1013.492","15.6","76.35","NAN","0"],
    [1052202,"2026-05-07 06:00:00","6295","0.75","20.12","2.254","8.97","1013.597","15.79","75.31","NAN","0"],
    [1052203,"2026-05-07 06:10:00","6296","0.7020000000000001","19.58","1.829","9.31","1013.699","15.97","74.51","NAN","0"],
    [1052204,"2026-05-07 06:20:00","6297","0.932","17.96","1.993","22.85","1013.7539999999999","16.18","73.48","NAN","0"],
    [1052205,"2026-05-07 06:30:00","6298","1.036","40.53","2.319","53.36","1013.79","16.2","73.73","NAN","0"],
    [1052206,"2026-05-07 06:40:00","6299","1.392","58.37","3.528","51.94","1013.97","16.62","73.33","NAN","0"],
    [1052207,"2026-05-07 06:50:00","6300","1.6569999999999998","44.96","2.94","34.09","1014.0239999999999","16.85","72.61","NAN","0"],
    [1052208,"2026-05-07 07:00:00","6301","1.375","42.63","2.483","30.07","1014.189","16.8","73.1","NAN","0"],
    [1052209,"2026-05-07 07:10:00","6302","1.3130000000000002","58.62","2.613","59.93","1014.2330000000001","16.86","74.0","NAN","0"],
    [1052210,"2026-05-07 07:20:00","6303","1.446","53.34","2.679","51.41","1014.258","16.81","74.32","NAN","0"],
    [1052211,"2026-05-07 07:30:00","6304","1.6119999999999999","70.42","3.463","57.3","1014.313","16.91","75.35","NAN","0"],
    [1052212,"2026-05-07 07:40:00","6305","1.73","83.6","3.0380000000000003","94.5","1014.2660000000001","16.82","76.61","NAN","0"],
    [1052213,"2026-05-07 07:50:00","6306","2.148","90.8","3.985","84.6","1014.3330000000001","16.72","77.45","NAN","0"],
    [1052214,"2026-05-07 08:00:00","6307","2.62","92.9","4.2139999999999995","67.39","1014.337","16.57","77.48","NAN","0"],
    [1052215,"2026-05-07 08:10:00","6308","2.438","91.3","4.2139999999999995","67.03","1014.2719999999999","17.2","72.45","NAN","0"],
    [1052216,"2026-05-07 08:20:00","6309","2.573","83.3","4.541","73.75","1014.262","17.39","72.25","NAN","0"],
    [1052217,"2026-05-07 08:30:00","6310","2.479","84.3","3.855","67.94","1014.2819999999999","17.28","72.32","NAN","0"],
    [1052218,"2026-05-07 08:40:00","6311","2.656","89.3","4.802","69.17","1014.293","17.45","70.54","NAN","0"],
    [1052219,"2026-05-07 08:50:00","6312","3.088","101.1","5.684","113.8","1014.211","17.87","67.81","NAN","0"],
    [1052220,"2026-05-07 09:00:00","6313","3.478","101.8","5.422999999999999","106.8","1014.2610000000001","17.81","67.74","NAN","0"],
    [1052221,"2026-05-07 09:10:00","6314","3.117","105.5","5.325","105.5","1014.4","17.97","67.13","NAN","0"],
    [1052222,"2026-05-07 09:20:00","6315","2.721","102.3","5.031000000000001","116.5","1014.4889999999999","18.18","66.33","NAN","0"],
    [1052223,"2026-05-07 09:30:00","6316","3.569","101.9","5.847","112.6","1014.534","17.84","66.0","NAN","0"],
    [1052224,"2026-05-07 09:40:00","6317","3.074","103.4","4.933","111.9","1014.5989999999999","17.94","64.82","NAN","0"],
    [1052225,"2026-05-07 09:50:00","6318","3.2889999999999997","109.5","5.292000000000001","117.6","1014.6260000000001","17.88","65.52","NAN","0"],
    [1052226,"2026-05-07 10:00:00","6319","2.775","104.3","5.619","113.1","1014.688","18.05","65.95","NAN","0"],
    [1052227,"2026-05-07 10:10:00","6320","2.912","108.9","4.638999999999999","115.5","1014.6210000000001","18.15","65.48","NAN","0"],
    [1052228,"2026-05-07 10:20:00","6321","2.6239999999999997","103.9","5.129","77.35","1014.566","18.24","65.52","NAN","0"],
    [1052229,"2026-05-07 10:30:00","6322","3.136","108.7","5.521","103.8","1014.461","18.16","65.4","NAN","0"],
    [1052230,"2026-05-07 10:40:00","6323","3.4560000000000004","105.2","6.042999999999999","114.7","1014.2919999999999","17.97","65.91","NAN","0"],
    [1052231,"2026-05-07 10:50:00","6324","3.2119999999999997","107.8","5.1610000000000005","110.1","1014.21","17.88","66.43","NAN","0"],
    [1052232,"2026-05-07 11:00:00","6325","3.095","103.2","6.1739999999999995","103.4","1014.198","18.02","66.6","NAN","0"],
    [1052233,"2026-05-07 11:10:00","6326","2.7119999999999997","99.2","4.508","118.7","1014.068","18.06","65.55","NAN","0"],
    [1052234,"2026-05-07 11:20:00","6327","2.81","108.6","5.1610000000000005","118.2","1013.9810000000001","18.09","65.59","NAN","0"],
    [1052235,"2026-05-07 11:30:00","6328","2.835","116.7","4.638999999999999","93.2","1014.048","17.87","65.48","NAN","0"],
    [1052236,"2026-05-07 11:40:00","6329","2.5469999999999997","125.4","4.933","130.1","1013.953","18.12","65.67","NAN","0"],
    [1052237,"2026-05-07 11:50:00","6330","2.5810000000000004","132.8","4.083","142.4","1014.046","18.01","65.46","NAN","0"],
    [1052238,"2026-05-07 12:00:00","6331","2.67","121.0","4.638999999999999","103.7","1013.9680000000001","18.06","66.41","NAN","0"],
    [1052239,"2026-05-07 12:10:00","6332","3.0269999999999997","125.0","5.815","109.4","1013.943","17.95","66.75","NAN","0"],
    [1052240,"2026-05-07 12:20:00","6333","2.3890000000000002","130.8","4.247","131.0","1013.831","18.22","65.77","NAN","0"],
    [1052241,"2026-05-07 12:30:00","6334","2.747","120.4","4.377","112.5","1013.7819999999999","18.04","65.78","NAN","0"],
    [1052242,"2026-05-07 12:40:00","6335","2.58","124.3","5.129","103.3","1013.7510000000001","18.31","65.1","NAN","0"],
    [1052243,"2026-05-07 12:50:00","6336","2.765","136.0","4.769","120.5","1013.692","18.13","63.01","NAN","0"],
    [1052244,"2026-05-07 13:00:00","6337","2.4330000000000003","118.9","4.4430000000000005","101.6","1013.495","18.18","62.98","NAN","0"],
    [1052245,"2026-05-07 13:10:00","6338","2.88","122.5","4.638999999999999","116.7","1013.373","17.96","62.89","NAN","0"],
    [1052246,"2026-05-07 13:20:00","6339","2.8789999999999996","115.3","5.031000000000001","113.2","1013.2710000000001","18.14","61.25","NAN","0"],
    [1052247,"2026-05-07 13:30:00","6340","2.635","118.4","5.2589999999999995","99.3","1013.194","18.1","61.25","NAN","0"],
    [1052248,"2026-05-07 13:40:00","6341","2.742","109.6","5.031000000000001","111.7","1013.201","17.99","61.95","NAN","0"],
    [1052249,"2026-05-07 13:50:00","6342","2.713","100.1","4.835","116.5","1013.046","18.09","62.79","NAN","0"],
    [1052250,"2026-05-07 14:00:00","6343","2.9160000000000004","105.7","4.802","112.9","1012.74","18.17","63.04","NAN","0"],
    [1052251,"2026-05-07 14:10:00","6344","3.056","107.6","5.2589999999999995","109.4","1012.72","17.71","64.94","NAN","0"],
    [1052252,"2026-05-07 14:20:00","6345","2.85","96.9","5.194","114.5","1012.591","18.16","64.08","NAN","0"],
    [1052253,"2026-05-07 14:30:00","6346","2.372","104.4","4.279","116.6","1012.546","18.18","64.16","NAN","0"],
    [1052254,"2026-05-07 14:40:00","6347","2.633","91.2","4.867","61.72","1012.471","18.18","64.35","NAN","0"],
    [1052255,"2026-05-07 14:50:00","6348","2.503","107.0","3.92","108.0","1012.6439999999999","18.04","65.08","NAN","0"],
    [1052256,"2026-05-07 15:00:00","6349","3.375","113.7","5.553","94.8","1012.461","17.74","66.64","NAN","0"],
    [1052257,"2026-05-07 15:10:00","6350","2.367","103.8","5.096","119.4","1012.462","17.92","67.02","NAN","0"],
    [1052258,"2026-05-07 15:20:00","6351","3.057","123.2","5.063","113.1","1012.454","17.66","68.22","NAN","0"],
    [1052259,"2026-05-07 15:30:00","6352","2.523","110.8","3.9530000000000003","85.3","1012.362","17.65","69.06","NAN","0"],
    [1052260,"2026-05-07 15:40:00","6353","2.273","98.2","4.312","93.6","1012.187","18.01","68.58","NAN","0"],
    [1052261,"2026-05-07 15:50:00","6354","3.036","102.6","4.998","106.9","1012.07","17.9","69.22","NAN","0"],
    [1052262,"2026-05-07 16:00:00","6355","2.575","98.2","4.312","107.2","1011.951","17.86","69.85","NAN","0"],
    [1052263,"2026-05-07 16:10:00","6356","3.1319999999999997","104.8","5.031000000000001","104.5","1011.919","17.72","70.24","NAN","0"],
    [1052264,"2026-05-07 16:20:00","6357","2.977","107.0","5.292000000000001","106.3","1011.825","17.58","71.0","NAN","0"],
    [1052265,"2026-05-07 16:30:00","6358","2.62","90.3","4.4430000000000005","85.4","1011.8489999999999","17.87","69.96","NAN","0"],
    [1052266,"2026-05-07 16:40:00","6359","2.175","98.9","3.92","106.8","1012.005","17.85","70.5","NAN","0"],
    [1052267,"2026-05-07 16:50:00","6360","2.5810000000000004","93.7","4.508","118.0","1012.0830000000001","17.59","71.77","NAN","0"],
    [1052268,"2026-05-07 17:00:00","6361","2.5989999999999998","90.9","5.325","88.2","1012.1039999999999","17.71","71.04","NAN","0"],
    [1052269,"2026-05-07 17:10:00","6362","2.555","102.8","4.606","101.6","1012.211","17.69","71.51","NAN","0"],
    [1052270,"2026-05-07 17:20:00","6363","1.95","101.2","3.855","91.0","1012.334","17.62","72.1","NAN","0"],
    [1052271,"2026-05-07 17:30:00","6364","2.39","110.4","4.41","117.8","1012.31","17.55","72.55","NAN","0"],
    [1052272,"2026-05-07 17:40:00","6365","2.275","90.3","4.181","103.1","1012.26","17.36","72.88","NAN","0"],
    [1052273,"2026-05-07 17:50:00","6366","2.15","79.26","3.6260000000000003","103.1","1012.2339999999999","17.52","72.4","NAN","0"]
]}
